Time;durP1;ratioP1;P1;durP2;ratioP2;P2;SDS_P1;SDS_P2;PMS_P1;PMS_P2;Temp;Humidity;BMP_temperature;BMP_pressure;BME280_temperature;BME280_humidity;BME280_pressure;Samples;Min_cycle;Max_cycle;Signal;HPM_P1;HPM_P2
2021/01/11 00:01:01;;;;;;;5.38;4.78;;;19.50;47.10;;;;;;5005834;28;20030;-54
2021/01/11 00:03:26;;;;;;;5.05;4.55;;;19.50;47.00;;;;;;5005272;28;20080;-54
2021/01/11 00:05:52;;;;;;;5.85;4.47;;;19.50;47.00;;;;;;5004844;28;20503;-55
2021/01/11 00:08:17;;;;;;;5.13;4.53;;;19.40;47.00;;;;;;5005419;28;20048;-52
2021/01/11 00:10:43;;;;;;;5.20;4.70;;;19.50;47.00;;;;;;5004520;28;20047;-53
2021/01/11 00:13:08;;;;;;;4.93;4.20;;;19.40;47.60;;;;;;5005244;28;20302;-50
2021/01/11 00:15:34;;;;;;;5.07;4.57;;;19.40;47.00;;;;;;5004971;28;20075;-56
2021/01/11 00:17:59;;;;;;;5.38;4.47;;;19.40;47.00;;;;;;5004381;28;20026;-57
2021/01/11 00:20:25;;;;;;;4.68;4.03;;;19.50;47.00;;;;;;4987223;28;20018;-54
2021/01/11 00:22:50;;;;;;;6.60;4.82;;;19.40;47.00;;;;;;4987176;28;20439;-50
2021/01/11 00:25:16;;;;;;;5.05;4.55;;;19.40;47.00;;;;;;5005047;28;20448;-56
2021/01/11 00:27:41;;;;;;;6.20;4.32;;;19.40;47.00;;;;;;5004319;28;20037;-51
2021/01/11 00:30:07;;;;;;;5.40;4.15;;;19.40;47.00;;;;;;5004254;28;20042;-57
2021/01/11 00:32:37;;;;;;;6.07;4.47;;;19.40;47.00;;;;;;5005180;28;20038;-49
2021/01/11 00:35:04;;;;;;;5.90;4.40;;;19.40;47.00;;;;;;4987097;28;20429;-53
2021/01/11 00:37:29;;;;;;;5.63;4.38;;;19.40;47.00;;;;;;5003854;28;20270;-51
2021/01/11 00:39:55;;;;;;;6.05;4.55;;;19.40;47.00;;;;;;4987163;28;20033;-56
2021/01/11 00:42:20;;;;;;;4.72;4.30;;;19.40;47.00;;;;;;5004526;28;20030;-49
2021/01/11 00:44:46;;;;;;;5.45;4.95;;;19.40;47.00;;;;;;5004604;28;20057;-50
2021/01/11 00:47:11;;;;;;;4.45;3.72;;;19.40;47.00;;;;;;5004058;28;20038;-54
2021/01/11 00:49:37;;;;;;;5.05;4.43;;;19.40;47.00;;;;;;5005621;28;20410;-55
2021/01/11 00:52:03;;;;;;;4.88;3.70;;;19.40;47.10;;;;;;5015439;28;20034;-54
2021/01/11 00:54:28;;;;;;;4.70;4.18;;;19.30;47.00;;;;;;4998568;28;20042;-52
2021/01/11 00:56:54;;;;;;;4.57;4.05;;;19.40;47.00;;;;;;5018899;22;20057;-59
2021/01/11 00:59:19;;;;;;;5.57;4.55;;;19.30;47.00;;;;;;5023539;28;20033;-60
2021/01/11 01:01:52;;;;;;;4.18;3.78;;;19.40;47.00;;;;;;5023537;28;20021;-61
2021/01/11 01:04:18;;;;;;;6.25;4.47;;;19.30;47.00;;;;;;5006156;28;20221;-57
2021/01/11 01:06:43;;;;;;;5.78;4.05;;;19.30;47.00;;;;;;5023813;28;20518;-58
2021/01/11 01:09:09;;;;;;;4.70;3.85;;;19.30;47.00;;;;;;5023933;28;20042;-58
2021/01/11 01:11:38;;;;;;;4.78;4.20;;;19.30;47.00;;;;;;5024451;28;20861;-58
2021/01/11 01:14:04;;;;;;;4.25;3.85;;;19.30;47.00;;;;;;5006254;28;20035;-54
2021/01/11 01:16:30;;;;;;;4.35;3.92;;;19.30;47.00;;;;;;5023344;28;20041;-57
2021/01/11 01:18:55;;;;;;;4.63;4.18;;;19.30;47.00;;;;;;5023794;28;20024;-59
2021/01/11 01:21:21;;;;;;;4.15;3.75;;;19.30;47.00;;;;;;5022999;28;20029;-62
2021/01/11 01:23:47;;;;;;;4.40;3.90;;;19.30;47.00;;;;;;5022611;28;20033;-60
2021/01/11 01:26:12;;;;;;;4.70;3.95;;;19.30;47.00;;;;;;5023253;28;20558;-58
2021/01/11 01:28:38;;;;;;;4.35;3.78;;;19.30;47.00;;;;;;5024238;28;20439;-58
2021/01/11 01:31:03;;;;;;;6.18;4.00;;;19.30;47.00;;;;;;5005776;28;20514;-61
2021/01/11 01:33:28;;;;;;;5.60;4.50;;;19.30;47.00;;;;;;5024069;28;20320;-56
2021/01/11 01:35:54;;;;;;;4.75;3.65;;;19.30;47.00;;;;;;5023118;28;20091;-58
2021/01/11 01:38:19;;;;;;;4.47;4.03;;;19.30;47.00;;;;;;5023244;28;20398;-58
2021/01/11 01:40:46;;;;;;;4.60;3.70;;;19.30;47.00;;;;;;5023163;28;20057;-57
2021/01/11 01:43:12;;;;;;;4.88;3.92;;;19.20;47.00;;;;;;5024061;28;20025;-56
2021/01/11 01:45:37;;;;;;;4.20;3.53;;;19.30;47.00;;;;;;5023184;28;20051;-60
2021/01/11 01:48:04;;;;;;;5.40;3.95;;;19.20;47.00;;;;;;5005785;28;20802;-57
2021/01/11 01:50:30;;;;;;;4.88;4.15;;;19.20;47.00;;;;;;5005732;28;20034;-60
2021/01/11 01:52:55;;;;;;;4.70;3.97;;;19.20;47.00;;;;;;5023332;28;20498;-59
2021/01/11 01:55:21;;;;;;;3.92;3.53;;;19.20;47.00;;;;;;5023147;28;20038;-60
2021/01/11 01:57:46;;;;;;;4.72;3.92;;;19.20;47.00;;;;;;5005390;28;20040;-58
2021/01/11 02:00:12;;;;;;;3.47;3.17;;;19.20;47.00;;;;;;5005612;28;20537;-59
2021/01/11 02:02:38;;;;;;;3.30;3.00;;;19.20;47.00;;;;;;5023204;28;20030;-59
2021/01/11 02:05:05;;;;;;;4.50;4.10;;;19.20;47.00;;;;;;5023108;28;20025;-61
2021/01/11 02:07:46;;;;;;;4.25;3.60;;;19.20;47.00;;;;;;5022339;28;20069;-59
2021/01/11 02:10:35;;;;;;;5.60;3.50;;;19.20;47.00;;;;;;5007678;28;20491;-58
2021/01/11 02:13:24;;;;;;;4.82;3.30;;;19.20;47.00;;;;;;5008339;28;20034;-55
2021/01/11 02:16:09;;;;;;;3.75;3.20;;;19.20;47.00;;;;;;5009215;28;20030;-59
2021/01/11 02:18:45;;;;;;;3.72;3.42;;;19.10;47.00;;;;;;5023321;28;20331;-56
2021/01/11 02:21:54;;;;;;;3.42;3.13;;;19.10;47.10;;;;;;5006598;28;20405;-57
2021/01/11 02:24:57;;;;;;;3.83;3.47;;;19.00;47.10;;;;;;4982990;28;20614;-60
2021/01/11 02:27:42;;;;;;;3.83;3.42;;;19.00;47.20;;;;;;5022744;28;20037;-59
2021/01/11 02:30:25;;;;;;;3.10;2.80;;;18.90;47.20;;;;;;5004820;28;20029;-60
2021/01/11 02:32:57;;;;;;;3.75;3.42;;;18.90;47.20;;;;;;5005691;28;20110;-57
2021/01/11 02:35:22;;;;;;;3.70;3.38;;;18.90;47.20;;;;;;5008905;28;20079;-59
2021/01/11 02:37:48;;;;;;;5.47;3.92;;;18.80;47.20;;;;;;5008754;28;20021;-60
2021/01/11 02:40:13;;;;;;;3.25;2.95;;;18.80;47.20;;;;;;5026805;28;20277;-58
2021/01/11 02:42:39;;;;;;;3.95;3.22;;;18.80;47.30;;;;;;5026557;28;20033;-56
2021/01/11 02:45:06;;;;;;;3.20;2.90;;;18.70;47.20;;;;;;5026059;28;20053;-55
2021/01/11 02:47:53;;;;;;;4.93;3.67;;;18.70;47.20;;;;;;5008770;28;20128;-56
2021/01/11 02:50:25;;;;;;;4.05;3.65;;;18.70;47.10;;;;;;5025367;28;20029;-59
2021/01/11 02:53:18;;;;;;;4.10;3.67;;;18.70;47.00;;;;;;5008459;28;20033;-55
2021/01/11 02:55:55;;;;;;;3.95;3.53;;;18.70;47.00;;;;;;5011092;28;20890;-59
2021/01/11 02:58:46;;;;;;;3.40;3.10;;;18.70;47.10;;;;;;5008019;28;20717;-59
2021/01/11 03:01:12;;;;;;;3.95;2.97;;;18.60;47.00;;;;;;5008326;28;20054;-55
2021/01/11 03:03:38;;;;;;;3.53;3.10;;;18.60;47.00;;;;;;5008423;28;20449;-60
2021/01/11 03:06:04;;;;;;;4.72;3.55;;;18.60;47.10;;;;;;5007787;28;20259;-58
2021/01/11 03:08:29;;;;;;;4.15;3.65;;;18.60;47.10;;;;;;5026311;28;20030;-58
2021/01/11 03:10:55;;;;;;;3.28;2.97;;;18.50;47.10;;;;;;5025661;28;20594;-56
2021/01/11 03:13:20;;;;;;;3.78;3.03;;;18.50;47.20;;;;;;5025712;28;20033;-59
2021/01/11 03:15:46;;;;;;;3.67;3.35;;;18.40;47.20;;;;;;5026208;28;20075;-57
2021/01/11 03:18:12;;;;;;;4.20;3.30;;;18.40;47.20;;;;;;5026204;28;20029;-58
2021/01/11 03:20:37;;;;;;;3.22;2.92;;;18.40;47.30;;;;;;5008032;28;20022;-57
2021/01/11 03:23:02;;;;;;;3.28;2.95;;;18.40;47.40;;;;;;5025731;28;20110;-59
2021/01/11 03:25:28;;;;;;;3.28;2.97;;;18.40;47.40;;;;;;5025957;28;20014;-60
2021/01/11 03:27:53;;;;;;;3.88;3.08;;;18.30;47.30;;;;;;5025433;28;20324;-60
2021/01/11 03:30:19;;;;;;;2.63;2.42;;;18.40;47.30;;;;;;5026362;28;20557;-60
2021/01/11 03:32:47;;;;;;;3.67;3.22;;;18.40;47.20;;;;;;5025896;28;20068;-61
2021/01/11 03:35:13;;;;;;;3.35;2.78;;;18.50;47.20;;;;;;5025560;28;20044;-58
2021/01/11 03:37:38;;;;;;;3.75;2.70;;;18.60;47.10;;;;;;5025499;28;20026;-60
2021/01/11 03:40:05;;;;;;;2.92;2.70;;;18.60;47.00;;;;;;5007594;28;20033;-60
2021/01/11 03:42:30;;;;;;;3.08;2.78;;;18.70;46.90;;;;;;5025432;28;20052;-60
2021/01/11 03:44:56;;;;;;;3.47;2.80;;;18.80;46.80;;;;;;5024856;28;20491;-60
2021/01/11 03:47:21;;;;;;;2.95;2.65;;;18.90;46.80;;;;;;5025648;28;20044;-60
2021/01/11 03:49:47;;;;;;;3.63;2.67;;;19.00;46.80;;;;;;5026067;28;20037;-59
2021/01/11 03:52:12;;;;;;;3.58;3.13;;;19.10;46.60;;;;;;5026245;28;20037;-59
2021/01/11 03:54:38;;;;;;;3.75;3.15;;;19.10;46.50;;;;;;5025726;28;20041;-59
2021/01/11 03:57:03;;;;;;;2.65;2.45;;;19.20;46.40;;;;;;5024886;28;20033;-58
2021/01/11 03:59:29;;;;;;;3.22;2.85;;;19.30;46.40;;;;;;5007793;28;20034;-60
2021/01/11 04:01:54;;;;;;;2.92;2.63;;;19.30;46.30;;;;;;5007401;28;20371;-58
2021/01/11 04:04:20;;;;;;;3.08;2.78;;;19.40;46.30;;;;;;5025603;28;20060;-58
2021/01/11 04:06:45;;;;;;;3.08;2.60;;;19.50;46.30;;;;;;5025157;28;20030;-58
2021/01/11 04:09:11;;;;;;;2.63;2.42;;;19.50;46.20;;;;;;5025082;28;20041;-56
2021/01/11 04:11:37;;;;;;;2.47;2.28;;;19.50;46.00;;;;;;5025008;28;20037;-60
2021/01/11 04:14:03;;;;;;;2.60;2.40;;;19.60;46.00;;;;;;5024896;28;20030;-59
2021/01/11 04:16:28;;;;;;;3.25;2.95;;;19.70;46.10;;;;;;5024895;28;20469;-58
2021/01/11 04:18:54;;;;;;;2.65;2.42;;;19.70;46.10;;;;;;5025269;28;20045;-59
2021/01/11 04:21:19;;;;;;;2.95;2.53;;;19.70;46.10;;;;;;5024883;28;20044;-59
2021/01/11 04:23:45;;;;;;;2.55;2.33;;;19.80;46.00;;;;;;5025474;28;20590;-56
2021/01/11 04:26:10;;;;;;;2.55;2.35;;;19.80;45.90;;;;;;5024470;28;20427;-59
2021/01/11 04:28:36;;;;;;;2.38;2.17;;;19.90;46.00;;;;;;5025096;28;20053;-60
2021/01/11 04:31:02;;;;;;;2.25;2.05;;;19.90;46.00;;;;;;5024464;28;20100;-60
2021/01/11 04:33:27;;;;;;;3.03;2.60;;;19.90;45.90;;;;;;5024710;28;20145;-57
2021/01/11 04:35:53;;;;;;;3.03;2.72;;;19.90;45.90;;;;;;5024970;28;20599;-56
2021/01/11 04:38:18;;;;;;;2.53;2.30;;;19.90;45.90;;;;;;5024962;28;20032;-57
2021/01/11 04:40:44;;;;;;;2.45;2.25;;;20.00;46.00;;;;;;5024185;28;20018;-62
2021/01/11 04:43:16;;;;;;;2.30;2.10;;;19.90;46.00;;;;;;5024455;28;20438;-55
2021/01/11 04:45:42;;;;;;;2.78;2.30;;;19.90;46.60;;;;;;5006842;28;20033;-59
2021/01/11 04:48:08;;;;;;;2.83;2.35;;;19.90;46.00;;;;;;5024500;28;20525;-59
2021/01/11 04:50:33;;;;;;;2.70;2.47;;;19.80;46.10;;;;;;5024286;28;20030;-56
2021/01/11 04:53:00;;;;;;;2.35;2.15;;;19.90;46.20;;;;;;5024127;28;20033;-59
2021/01/11 04:55:25;;;;;;;2.90;2.47;;;19.80;46.10;;;;;;5007214;28;20083;-56
2021/01/11 04:57:54;;;;;;;2.33;2.05;;;19.80;46.20;;;;;;5023978;28;20037;-61
2021/01/11 05:00:30;;;;;;;2.47;2.28;;;19.80;46.20;;;;;;5024071;28;20399;-55
2021/01/11 05:02:59;;;;;;;2.22;2.00;;;19.70;46.10;;;;;;5024368;28;20421;-57
2021/01/11 05:05:26;;;;;;;2.78;2.53;;;19.70;46.30;;;;;;5024755;28;20025;-57
2021/01/11 05:07:51;;;;;;;2.10;1.90;;;19.70;46.30;;;;;;5006138;28;20074;-59
2021/01/11 05:10:27;;;;;;;2.25;2.03;;;19.70;46.40;;;;;;5023781;28;20530;-57
2021/01/11 05:12:54;;;;;;;2.35;1.98;;;19.60;46.50;;;;;;5023812;28;20445;-60
2021/01/11 05:15:30;;;;;;;2.35;1.92;;;19.60;46.40;;;;;;5023963;28;20057;-59
2021/01/11 05:17:56;;;;;;;2.33;2.13;;;19.60;46.50;;;;;;5006078;28;20045;-59
2021/01/11 05:20:23;;;;;;;2.47;2.25;;;19.50;46.50;;;;;;5006225;28;20111;-58
2021/01/11 05:22:49;;;;;;;2.88;2.10;;;19.50;46.50;;;;;;5006624;28;20033;-55
2021/01/11 05:25:35;;;;;;;2.13;1.92;;;19.50;46.60;;;;;;5023805;28;20037;-59
2021/01/11 05:28:10;;;;;;;2.13;1.90;;;19.50;46.60;;;;;;5006024;28;20049;-62
2021/01/11 05:30:40;;;;;;;1.98;1.77;;;19.50;46.60;;;;;;5023879;28;20121;-58
2021/01/11 05:33:07;;;;;;;2.10;1.90;;;19.50;46.60;;;;;;5006029;28;20425;-60
2021/01/11 05:35:33;;;;;;;2.78;2.28;;;19.40;46.60;;;;;;5007187;28;20038;-60
2021/01/11 05:38:01;;;;;;;2.50;2.30;;;19.40;46.60;;;;;;5006822;28;20029;-60
2021/01/11 05:40:28;;;;;;;2.40;2.17;;;19.40;46.70;;;;;;5023249;28;20033;-59
2021/01/11 05:42:58;;;;;;;2.22;2.00;;;19.40;46.70;;;;;;5023655;28;20101;-59
2021/01/11 05:45:25;;;;;;;2.10;1.90;;;19.40;46.70;;;;;;5023034;28;20079;-58
2021/01/11 05:48:07;;;;;;;2.85;2.20;;;19.30;46.70;;;;;;5023158;28;20116;-58
2021/01/11 05:50:35;;;;;;;2.22;2.00;;;19.30;46.70;;;;;;5005030;28;20111;-57
2021/01/11 05:53:01;;;;;;;2.30;2.10;;;19.30;46.80;;;;;;4989836;28;20033;-55
2021/01/11 05:55:28;;;;;;;2.10;1.90;;;19.30;46.70;;;;;;5005928;28;20399;-56
2021/01/11 05:58:00;;;;;;;2.13;1.92;;;19.30;46.80;;;;;;5005336;28;20041;-57
2021/01/11 06:00:28;;;;;;;2.95;1.52;;;19.30;46.80;;;;;;5023031;28;20026;-59
2021/01/11 06:02:54;;;;;;;2.00;1.80;;;19.30;46.70;;;;;;5005755;28;20084;-59
2021/01/11 06:05:19;;;;;;;2.50;2.13;;;19.30;46.80;;;;;;5005261;28;20037;-59
2021/01/11 06:07:45;;;;;;;2.88;1.85;;;19.30;46.80;;;;;;5023004;28;20040;-59
2021/01/11 06:10:12;;;;;;;2.63;2.13;;;19.20;46.80;;;;;;5027067;28;20038;-56
2021/01/11 06:12:38;;;;;;;2.42;1.95;;;19.20;46.80;;;;;;5026816;28;20029;-57
2021/01/11 06:15:04;;;;;;;2.30;2.10;;;19.20;46.80;;;;;;5009090;28;20029;-60
2021/01/11 06:17:33;;;;;;;3.10;2.80;;;19.20;46.80;;;;;;5008132;28;20025;-57
2021/01/11 06:19:58;;;;;;;3.03;2.40;;;19.20;46.80;;;;;;5007579;28;20429;-57
2021/01/11 06:22:45;;;;;;;3.30;2.72;;;19.20;46.90;;;;;;4991228;28;20037;-58
2021/01/11 06:25:22;;;;;;;4.30;3.38;;;19.10;46.90;;;;;;5026559;28;20052;-58
2021/01/11 06:27:57;;;;;;;7.88;4.80;;;19.10;46.90;;;;;;5026513;28;20116;-60
2021/01/11 06:30:35;;;;;;;10.32;5.82;;;19.10;46.80;;;;;;5026825;28;20046;-60
2021/01/11 06:33:17;;;;;;;12.10;6.57;;;19.10;46.80;;;;;;5026801;28;20398;-59
2021/01/11 06:35:47;;;;;;;20.75;8.75;;;19.00;46.80;;;;;;5026016;28;20600;-57
2021/01/11 06:38:26;;;;;;;17.10;9.73;;;19.00;46.90;;;;;;5026741;28;20029;-60
2021/01/11 06:40:52;;;;;;;18.25;10.18;;;19.00;46.90;;;;;;5026731;28;20133;-60
2021/01/11 06:43:18;;;;;;;17.08;10.52;;;18.90;46.90;;;;;;5026854;28;20486;-56
2021/01/11 06:45:44;;;;;;;21.10;11.50;;;18.90;46.90;;;;;;5026632;28;20037;-61
2021/01/11 06:48:14;;;;;;;25.73;12.65;;;18.80;46.90;;;;;;5026452;28;20033;-59
2021/01/11 06:50:41;;;;;;;24.55;11.25;;;18.80;46.90;;;;;;5025990;28;20104;-59
2021/01/11 06:53:06;;;;;;;21.77;12.63;;;18.80;46.90;;;;;;5024525;28;20067;-57
2021/01/11 06:55:32;;;;;;;24.20;11.77;;;18.80;47.00;;;;;;5026960;28;20025;-59
2021/01/11 06:57:58;;;;;;;25.70;12.43;;;18.70;46.90;;;;;;5025720;28;20034;-59
2021/01/11 07:00:34;;;;;;;20.67;11.43;;;18.70;47.00;;;;;;5036594;22;20143;-62
2021/01/11 07:02:59;;;;;;;;;;;18.70;47.00;;;;;;5003319;28;20041;-60
2021/01/11 07:05:35;;;;;;;21.45;11.55;;;18.70;47.00;;;;;;5021554;28;19913;-62
2021/01/11 07:08:12;;;;;;;25.17;12.38;;;18.70;47.10;;;;;;5021273;28;20037;-62
2021/01/11 07:10:39;;;;;;;21.98;11.55;;;18.60;47.00;;;;;;5020978;28;20036;-60
2021/01/11 07:13:17;;;;;;;20.95;11.98;;;18.60;47.00;;;;;;4987734;28;20038;-60
2021/01/11 07:15:43;;;;;;;20.52;11.38;;;18.60;47.10;;;;;;5004469;28;20034;-62
2021/01/11 07:18:09;;;;;;;24.02;12.15;;;18.60;47.10;;;;;;4989161;28;20457;-61
2021/01/11 07:20:41;;;;;;;24.70;12.23;;;18.60;47.10;;;;;;5022375;28;20036;-61
2021/01/11 07:23:07;;;;;;;23.13;12.18;;;18.60;47.20;;;;;;5022711;28;20112;-61
2021/01/11 07:25:32;;;;;;;28.42;13.20;;;18.60;47.10;;;;;;5005161;28;20120;-62
2021/01/11 07:27:59;;;;;;;19.83;11.05;;;18.50;47.10;;;;;;5005734;28;20396;-60
2021/01/11 07:30:25;;;;;;;23.67;11.30;;;18.50;47.10;;;;;;4988991;28;20044;-62
2021/01/11 07:32:50;;;;;;;18.40;10.85;;;18.50;47.10;;;;;;5005305;28;20029;-61
2021/01/11 07:35:16;;;;;;;22.90;12.20;;;18.50;47.10;;;;;;5023014;28;20104;-62
2021/01/11 07:37:41;;;;;;;19.85;11.02;;;18.50;47.20;;;;;;4988347;28;20026;-62
2021/01/11 07:40:08;;;;;;;17.75;9.57;;;18.50;47.10;;;;;;5004744;28;20398;-61
2021/01/11 07:42:33;;;;;;;18.00;11.18;;;18.50;47.10;;;;;;4990287;28;20029;-61
2021/01/11 07:45:08;;;;;;;18.02;9.93;;;18.50;47.20;;;;;;5023839;28;20048;-62
2021/01/11 07:47:34;;;;;;;17.55;10.48;;;18.50;47.20;;;;;;5023971;28;20034;-64
2021/01/11 07:49:59;;;;;;;16.63;9.95;;;18.50;47.20;;;;;;5023916;28;20063;-63
2021/01/11 07:52:25;;;;;;;20.17;10.00;;;18.50;47.30;;;;;;5005372;28;20063;-65
2021/01/11 07:55:01;;;;;;;15.18;10.05;;;18.40;47.20;;;;;;5005808;28;20022;-65
2021/01/11 07:57:27;;;;;;;18.40;10.70;;;18.50;47.20;;;;;;5023002;28;20044;-62
2021/01/11 08:00:04;;;;;;;17.85;10.05;;;18.40;47.20;;;;;;5023916;28;20053;-62
2021/01/11 08:02:30;;;;;;;20.50;9.10;;;18.40;47.20;;;;;;5006881;28;20037;-63
2021/01/11 08:04:56;;;;;;;14.90;8.90;;;18.40;47.20;;;;;;4985021;28;20084;-62
2021/01/11 08:07:31;;;;;;;15.23;9.07;;;18.40;47.20;;;;;;4934854;28;20556;-62
2021/01/11 08:09:57;;;;;;;;;;;18.40;47.20;;;;;;5006073;28;20037;-62
2021/01/11 08:12:22;;;;;;;17.30;9.23;;;18.40;47.10;;;;;;5022529;28;19913;-63
2021/01/11 08:14:49;;;;;;;15.15;9.35;;;18.40;47.00;;;;;;5005714;28;20025;-63
2021/01/11 08:17:20;;;;;;;15.07;8.60;;;18.50;47.10;;;;;;5006023;28;20029;-62
2021/01/11 08:19:52;;;;;;;16.10;8.68;;;18.40;47.00;;;;;;5023489;28;20208;-63
2021/01/11 08:22:19;;;;;;;17.58;9.63;;;18.40;47.00;;;;;;5005536;28;20064;-64
2021/01/11 08:24:44;;;;;;;16.48;9.30;;;18.40;47.00;;;;;;5023729;28;20057;-63
2021/01/11 08:27:43;;;;;;;13.90;8.15;;;18.40;47.00;;;;;;5004944;28;20099;-63
2021/01/11 08:30:13;;;;;;;12.85;7.70;;;18.50;47.00;;;;;;5004772;28;20368;-63
2021/01/11 08:32:38;;;;;;;13.00;7.65;;;18.40;47.00;;;;;;5005244;28;20032;-60
2021/01/11 08:35:18;;;;;;;15.95;8.57;;;18.50;47.00;;;;;;5006277;28;20029;-63
2021/01/11 08:37:44;;;;;;;13.40;8.48;;;18.50;47.00;;;;;;5024224;28;20036;-63
2021/01/11 08:40:19;;;;;;;13.35;7.68;;;18.50;47.00;;;;;;5025458;28;20021;-63
2021/01/11 08:42:48;;;;;;;12.63;8.18;;;18.50;47.00;;;;;;5005230;28;20593;-62
2021/01/11 08:45:32;;;;;;;14.15;7.47;;;18.50;46.90;;;;;;5005351;28;20029;-63
2021/01/11 08:48:04;;;;;;;15.35;7.40;;;18.50;46.90;;;;;;5004440;28;20064;-63
2021/01/11 08:50:30;;;;;;;13.80;8.23;;;18.50;46.90;;;;;;5005335;28;20029;-62
2021/01/11 08:52:56;;;;;;;13.45;7.80;;;18.50;46.80;;;;;;5004744;28;20032;-63
2021/01/11 08:55:22;;;;;;;12.55;7.97;;;18.60;46.90;;;;;;5005108;28;20026;-61
2021/01/11 08:58:00;;;;;;;12.93;7.03;;;18.60;46.90;;;;;;4988488;28;20052;-64
2021/01/11 09:00:26;;;;;;;14.50;8.63;;;18.50;46.80;;;;;;5022007;28;20038;-63
2021/01/11 09:02:51;;;;;;;10.43;6.80;;;18.60;46.90;;;;;;5022810;28;20040;-63
2021/01/11 09:05:18;;;;;;;10.82;7.15;;;18.60;46.90;;;;;;5006324;28;20498;-63
2021/01/11 09:07:44;;;;;;;12.32;7.80;;;18.60;46.90;;;;;;4988411;28;20038;-63
2021/01/11 09:10:23;;;;;;;11.75;6.65;;;18.60;46.80;;;;;;5004830;28;20079;-64
2021/01/11 09:12:48;;;;;;;9.32;6.10;;;18.60;46.80;;;;;;5005084;28;20036;-63
2021/01/11 09:15:14;;;;;;;12.38;7.50;;;18.60;46.80;;;;;;5022198;28;20034;-64
2021/01/11 09:17:40;;;;;;;12.90;7.60;;;18.70;46.90;;;;;;4925623;28;20450;-63
2021/01/11 09:20:06;;;;;;;11.82;7.25;;;18.60;46.70;;;;;;4980008;28;20065;-63
2021/01/11 09:22:37;;;;;;;12.15;7.63;;;18.70;46.80;;;;;;5004408;28;20041;-64
2021/01/11 09:25:08;;;;;;;11.50;7.47;;;18.70;46.90;;;;;;5005012;28;20038;-63
2021/01/11 09:27:34;;;;;;;10.57;6.82;;;18.70;46.80;;;;;;5021774;28;20045;-63
2021/01/11 09:29:59;;;;;;;11.85;7.20;;;18.70;46.80;;;;;;4988173;28;20479;-64
2021/01/11 09:32:25;;;;;;;10.20;6.15;;;18.70;46.80;;;;;;5021863;28;20175;-62
2021/01/11 09:34:50;;;;;;;9.65;6.43;;;18.70;46.70;;;;;;5021972;28;20029;-63
2021/01/11 09:37:16;;;;;;;10.40;6.55;;;18.70;46.70;;;;;;5021721;28;20041;-63
2021/01/11 09:39:42;;;;;;;11.75;6.53;;;18.70;46.70;;;;;;5020943;28;20107;-62
2021/01/11 09:42:07;;;;;;;10.50;5.93;;;18.70;46.80;;;;;;5004032;28;20037;-62
2021/01/11 09:44:33;;;;;;;9.10;5.47;;;18.70;46.80;;;;;;5003267;28;20589;-61
2021/01/11 09:46:59;;;;;;;7.60;5.78;;;18.70;46.80;;;;;;5019530;28;20052;-63
2021/01/11 09:49:24;;;;;;;9.90;5.60;;;18.70;46.80;;;;;;5004233;28;20463;-62
2021/01/11 09:51:50;;;;;;;9.00;5.63;;;18.60;46.80;;;;;;5003145;28;20480;-62
2021/01/11 09:54:16;;;;;;;9.20;5.88;;;18.60;46.90;;;;;;5003719;28;20124;-61
2021/01/11 09:56:42;;;;;;;8.02;4.88;;;18.60;46.90;;;;;;5004006;28;20033;-63
2021/01/11 09:59:08;;;;;;;10.20;5.75;;;18.50;46.90;;;;;;5003696;28;20026;-63
2021/01/11 10:01:42;;;;;;;7.97;5.25;;;18.50;46.90;;;;;;4987476;28;20487;-62
2021/01/11 10:04:08;;;;;;;7.07;4.85;;;18.60;46.90;;;;;;5021645;28;20033;-62
2021/01/11 10:06:46;;;;;;;7.28;5.55;;;18.60;46.90;;;;;;5003469;28;20107;-61
2021/01/11 10:09:13;;;;;;;8.57;4.82;;;18.50;46.90;;;;;;5004185;28;20116;-62
2021/01/11 10:11:39;;;;;;;10.80;5.65;;;18.60;46.90;;;;;;5003904;28;20539;-61
2021/01/11 10:14:05;;;;;;;6.53;4.70;;;18.50;46.90;;;;;;5003929;28;20077;-62
2021/01/11 10:16:31;;;;;;;7.32;4.57;;;18.50;46.80;;;;;;5003575;28;20030;-62
2021/01/11 10:18:56;;;;;;;9.30;5.20;;;18.60;46.90;;;;;;5021533;28;20017;-62
2021/01/11 10:21:22;;;;;;;8.20;5.60;;;18.50;46.80;;;;;;5004064;28;20116;-63
2021/01/11 10:23:48;;;;;;;6.85;4.65;;;18.60;46.90;;;;;;5003727;28;20036;-62
2021/01/11 10:26:20;;;;;;;4.97;4.35;;;18.60;46.80;;;;;;5021549;28;20120;-63
2021/01/11 10:28:46;;;;;;;8.07;5.15;;;18.60;46.90;;;;;;5003974;28;20040;-62
2021/01/11 10:31:12;;;;;;;6.75;4.57;;;18.60;46.90;;;;;;5004860;28;20675;-63
2021/01/11 10:33:37;;;;;;;8.07;4.55;;;18.60;46.80;;;;;;5021444;28;20061;-63
2021/01/11 10:36:03;;;;;;;8.30;4.88;;;18.60;46.80;;;;;;5004494;28;20041;-61
2021/01/11 10:38:29;;;;;;;7.07;5.15;;;18.60;46.80;;;;;;5006107;28;20022;-64
2021/01/11 10:40:55;;;;;;;6.70;5.35;;;18.60;46.80;;;;;;5006332;28;20018;-63
2021/01/11 10:43:20;;;;;;;7.07;5.07;;;18.60;46.80;;;;;;5004402;28;20021;-65
2021/01/11 10:45:46;;;;;;;8.30;4.95;;;18.60;46.80;;;;;;5003681;28;20076;-61
2021/01/11 10:48:11;;;;;;;6.88;4.47;;;18.70;46.80;;;;;;5021808;28;20052;-63
2021/01/11 10:50:37;;;;;;;6.35;4.47;;;18.70;46.80;;;;;;5021638;28;20501;-63
2021/01/11 10:53:02;;;;;;;5.80;4.60;;;18.70;46.90;;;;;;5004003;28;20033;-64
2021/01/11 10:55:27;;;;;;;5.93;4.60;;;18.70;46.80;;;;;;5007297;28;20123;-64
2021/01/11 10:57:53;;;;;;;5.57;3.95;;;18.70;46.70;;;;;;5025055;28;20407;-65
2021/01/11 11:00:21;;;;;;;7.10;4.50;;;18.70;46.80;;;;;;5007353;28;20049;-64
2021/01/11 11:02:47;;;;;;;6.20;4.43;;;18.70;46.70;;;;;;5008065;28;20029;-64
2021/01/11 11:05:12;;;;;;;6.35;4.13;;;18.70;46.80;;;;;;4992154;28;20736;-63
2021/01/11 11:07:38;;;;;;;5.97;4.25;;;18.70;46.70;;;;;;5007964;28;20037;-63
2021/01/11 11:10:07;;;;;;;4.82;3.72;;;18.70;46.80;;;;;;5025189;28;20049;-63
2021/01/11 11:12:33;;;;;;;4.97;3.90;;;18.70;46.70;;;;;;5006616;28;20108;-61
2021/01/11 11:15:00;;;;;;;7.28;4.75;;;18.80;46.80;;;;;;5007263;28;20456;-64
2021/01/11 11:17:30;;;;;;;5.03;4.10;;;18.80;46.70;;;;;;5006742;28;20113;-60
2021/01/11 11:19:55;;;;;;;4.88;3.83;;;18.80;46.70;;;;;;5006690;28;20048;-63
2021/01/11 11:22:21;;;;;;;4.93;4.00;;;18.80;46.70;;;;;;5024095;28;20495;-63
2021/01/11 11:24:46;;;;;;;5.35;4.28;;;18.90;46.70;;;;;;5006479;28;20026;-63
2021/01/11 11:27:12;;;;;;;5.60;4.22;;;18.80;46.60;;;;;;5006844;28;20037;-63
2021/01/11 11:29:37;;;;;;;6.60;4.00;;;18.80;46.60;;;;;;5031923;28;20033;-65
2021/01/11 11:32:03;;;;;;;5.65;3.75;;;18.80;46.60;;;;;;5013485;28;20060;-63
2021/01/11 11:34:30;;;;;;;6.43;3.75;;;18.90;46.60;;;;;;4987925;28;20088;-63
2021/01/11 11:36:56;;;;;;;7.40;4.47;;;18.90;46.70;;;;;;5005459;28;20041;-63
2021/01/11 11:39:21;;;;;;;5.75;3.85;;;18.90;46.70;;;;;;5004927;28;20057;-66
2021/01/11 11:41:47;;;;;;;4.97;3.92;;;18.90;46.60;;;;;;4986618;28;20068;-65
2021/01/11 11:44:12;;;;;;;5.30;3.35;;;18.90;46.50;;;;;;4987234;28;20026;-62
2021/01/11 11:46:38;;;;;;;5.60;3.90;;;18.90;46.60;;;;;;4986612;28;20435;-63
2021/01/11 11:49:03;;;;;;;6.30;4.07;;;19.00;46.60;;;;;;5005167;28;20316;-63
2021/01/11 11:51:29;;;;;;;5.93;3.70;;;19.00;46.60;;;;;;4967781;28;20365;-65
2021/01/11 11:53:55;;;;;;;4.32;3.30;;;19.00;46.50;;;;;;4969512;28;20038;-63
2021/01/11 11:56:21;;;;;;;4.05;3.35;;;19.00;46.50;;;;;;5003762;28;20064;-62
2021/01/11 11:58:46;;;;;;;4.93;3.55;;;19.00;46.40;;;;;;5003738;28;20484;-63
2021/01/11 12:01:12;;;;;;;5.10;3.47;;;19.00;46.50;;;;;;5003608;28;20546;-65
2021/01/11 12:03:37;;;;;;;3.58;3.22;;;19.10;46.50;;;;;;5003666;28;20109;-61
2021/01/11 12:06:03;;;;;;;4.65;3.60;;;19.10;46.40;;;;;;5002768;28;20590;-63
2021/01/11 12:08:29;;;;;;;6.03;3.63;;;19.10;46.40;;;;;;4986237;28;20026;-63
2021/01/11 12:10:55;;;;;;;3.42;2.80;;;19.10;46.40;;;;;;5004183;28;20022;-61
2021/01/11 12:13:21;;;;;;;4.72;3.28;;;19.20;46.30;;;;;;5004201;28;20090;-63
2021/01/11 12:15:47;;;;;;;4.68;3.10;;;19.20;46.40;;;;;;4986037;28;20108;-62
2021/01/11 12:18:12;;;;;;;5.07;3.20;;;19.20;46.40;;;;;;5003999;28;20084;-63
2021/01/11 12:20:38;;;;;;;4.55;3.20;;;19.20;46.30;;;;;;5003445;28;20029;-62
2021/01/11 12:23:03;;;;;;;4.25;3.50;;;19.20;46.30;;;;;;5004565;28;20538;-63
2021/01/11 12:25:29;;;;;;;3.33;3.03;;;19.20;46.30;;;;;;5004053;28;20022;-66
2021/01/11 12:27:55;;;;;;;3.75;2.80;;;19.20;46.30;;;;;;4969289;28;20080;-63
2021/01/11 12:30:21;;;;;;;4.22;3.22;;;19.20;46.30;;;;;;4986642;28;20042;-64
2021/01/11 12:32:47;;;;;;;3.72;3.10;;;19.20;46.30;;;;;;4985895;28;20034;-63
2021/01/11 12:35:13;;;;;;;3.45;2.80;;;19.20;46.30;;;;;;5003393;28;20045;-61
2021/01/11 12:37:39;;;;;;;4.28;3.20;;;19.20;46.30;;;;;;4985848;28;20760;-61
2021/01/11 12:40:05;;;;;;;3.95;3.20;;;19.20;46.30;;;;;;4987087;28;20041;-64
2021/01/11 12:42:30;;;;;;;3.67;2.95;;;19.20;46.30;;;;;;5004634;28;20040;-63
2021/01/11 12:44:57;;;;;;;4.00;3.10;;;19.20;47.10;;;;;;4984494;28;20038;-63
2021/01/11 12:47:22;;;;;;;3.30;2.78;;;19.20;46.40;;;;;;5002019;28;20025;-62